Time;durP1;ratioP1;P1;durP2;ratioP2;P2;SDS_P1;SDS_P2;PMS_P1;PMS_P2;Temp;Humidity;BMP_temperature;BMP_pressure;BME280_temperature;BME280_humidity;BME280_pressure;Samples;Min_cycle;Max_cycle;Signal;HPM_P1;HPM_P2
2021/10/29 00:01:53;;;;;;;23.25;15.88;;;10.60;96.20;;;;;;5037409;28;20075;-89
2021/10/29 00:04:51;;;;;;;24.02;15.77;;;10.60;96.10;;;;;;5036795;28;20049;-89
2021/10/29 00:07:26;;;;;;;24.95;16.58;;;10.50;95.90;;;;;;5036288;28;20073;-89
2021/10/29 00:09:58;;;;;;;21.30;15.63;;;10.60;96.00;;;;;;5054807;28;20114;-89
2021/10/29 00:12:59;;;;;;;21.63;15.57;;;10.50;95.90;;;;;;5046964;28;20492;-87
2021/10/29 00:15:47;;;;;;;22.88;15.40;;;10.50;95.80;;;;;;5040162;28;20120;-89
2021/10/29 00:18:50;;;;;;;19.40;14.82;;;10.50;96.00;;;;;;5042033;28;20148;-88
2021/10/29 00:25:29;;;;;;;22.77;15.90;;;10.50;96.10;;;;;;4956808;28;20055;-89
2021/10/29 00:28:27;;;;;;;24.05;16.80;;;10.40;96.00;;;;;;4967633;28;20536;-88
2021/10/29 00:31:48;;;;;;;22.88;15.35;;;10.40;95.90;;;;;;4960451;28;20069;-88
2021/10/29 00:38:16;;;;;;;21.52;14.98;;;10.30;96.30;;;;;;4921454;28;20145;-88
2021/10/29 00:40:51;;;;;;;23.15;16.75;;;10.30;96.20;;;;;;4967665;28;20445;-89
2021/10/29 00:43:17;;;;;;;22.67;15.90;;;10.30;96.20;;;;;;5081081;23;20507;-89
2021/10/29 00:45:42;;;;;;;25.42;16.08;;;10.30;96.20;;;;;;5056027;28;20048;-87
2021/10/29 00:48:08;;;;;;;24.73;16.00;;;10.30;96.20;;;;;;5055337;28;20043;-88
2021/10/29 00:50:35;;;;;;;21.55;15.10;;;10.30;96.20;;;;;;5055067;28;20059;-87
2021/10/29 00:53:01;;;;;;;22.50;15.93;;;10.30;96.20;;;;;;5065877;28;20087;-88
2021/10/29 00:55:27;;;;;;;20.98;15.43;;;10.30;96.30;;;;;;5055198;28;20036;-88
2021/10/29 00:57:52;;;;;;;22.85;15.90;;;10.20;96.40;;;;;;5055927;28;20071;-88
2021/10/29 01:00:19;;;;;;;21.35;15.73;;;10.30;96.50;;;;;;5073594;28;20044;-88
2021/10/29 01:02:45;;;;;;;24.10;16.50;;;10.20;96.70;;;;;;5073108;28;20089;-88
2021/10/29 01:05:10;;;;;;;21.30;15.85;;;10.30;96.80;;;;;;5055837;28;20032;-88
2021/10/29 01:07:37;;;;;;;23.15;16.50;;;10.30;96.60;;;;;;5055936;28;20098;-89
2021/10/29 01:10:04;;;;;;;23.42;15.63;;;10.30;96.60;;;;;;5072412;28;20037;-86
2021/10/29 01:12:30;;;;;;;22.33;15.52;;;10.30;96.50;;;;;;5055236;28;20148;-88
2021/10/29 01:14:57;;;;;;;23.48;15.77;;;10.30;96.40;;;;;;5055390;28;20440;-88
2021/10/29 01:17:23;;;;;;;23.35;15.18;;;10.20;96.20;;;;;;5055221;28;20044;-87
2021/10/29 01:19:52;;;;;;;23.15;15.95;;;10.20;96.00;;;;;;5055653;28;20070;-88
2021/10/29 01:22:18;;;;;;;22.30;15.90;;;10.20;96.10;;;;;;5039589;28;20120;-87
2021/10/29 01:24:43;;;;;;;25.23;16.23;;;10.20;96.10;;;;;;5054950;28;20064;-87
2021/10/29 01:27:13;;;;;;;25.27;16.23;;;10.20;96.10;;;;;;5058259;28;20040;-88
2021/10/29 01:29:39;;;;;;;22.13;15.68;;;10.30;96.10;;;;;;5059420;28;20476;-87
2021/10/29 01:32:07;;;;;;;26.48;16.63;;;10.20;96.00;;;;;;5058725;28;20057;-88
2021/10/29 01:34:33;;;;;;;29.25;17.05;;;10.20;96.00;;;;;;5058625;28;20036;-87
2021/10/29 01:37:00;;;;;;;22.08;15.55;;;10.20;96.50;;;;;;5059693;28;20120;-88
2021/10/29 01:39:25;;;;;;;22.58;16.05;;;10.20;96.10;;;;;;5057674;28;20037;-88
2021/10/29 01:41:51;;;;;;;24.60;16.17;;;10.20;96.00;;;;;;5058296;28;20048;-88
2021/10/29 01:44:16;;;;;;;23.38;16.65;;;10.20;96.00;;;;;;5058849;28;20171;-87
2021/10/29 01:46:42;;;;;;;22.08;15.65;;;10.20;96.00;;;;;;5058981;28;20044;-87
2021/10/29 01:49:08;;;;;;;24.30;17.10;;;10.20;96.00;;;;;;5058814;28;20033;-87
2021/10/29 01:51:34;;;;;;;23.48;16.80;;;10.20;96.00;;;;;;5059446;28;20484;-87
2021/10/29 01:54:00;;;;;;;24.13;16.70;;;10.10;96.00;;;;;;5058050;28;20051;-88
2021/10/29 01:56:27;;;;;;;24.58;15.98;;;10.10;96.00;;;;;;5059163;28;20423;-87
2021/10/29 01:58:52;;;;;;;23.23;15.80;;;10.10;96.00;;;;;;5058365;28;20036;-87
2021/10/29 02:01:18;;;;;;;21.92;16.25;;;10.10;96.00;;;;;;5059262;28;20037;-87
2021/10/29 02:03:44;;;;;;;21.70;16.17;;;10.10;96.20;;;;;;5058756;28;20380;-87
2021/10/29 02:06:10;;;;;;;23.30;15.88;;;10.10;96.20;;;;;;5058128;28;20041;-87
2021/10/29 02:08:36;;;;;;;24.35;16.60;;;10.10;96.20;;;;;;5059197;28;20047;-87
2021/10/29 02:11:01;;;;;;;22.73;16.10;;;10.10;96.20;;;;;;5057948;28;20518;-88
2021/10/29 02:13:28;;;;;;;24.15;15.77;;;10.10;96.10;;;;;;5055148;28;20044;-86
2021/10/29 02:15:53;;;;;;;24.52;16.25;;;10.10;96.00;;;;;;5058400;28;20053;-86
2021/10/29 02:18:19;;;;;;;21.13;15.15;;;10.00;96.10;;;;;;5058284;28;20107;-87
2021/10/29 02:20:45;;;;;;;21.40;15.93;;;10.00;96.20;;;;;;5057899;28;20087;-87
2021/10/29 02:23:12;;;;;;;25.25;16.17;;;10.00;96.20;;;;;;5041895;28;20083;-87
2021/10/29 02:25:43;;;;;;;27.38;16.48;;;10.00;96.20;;;;;;5058699;28;20045;-87
2021/10/29 02:28:09;;;;;;;21.50;15.38;;;10.00;96.10;;;;;;5051444;28;20045;-86
2021/10/29 02:30:35;;;;;;;21.10;14.88;;;10.00;96.20;;;;;;5052156;28;20048;-86
2021/10/29 02:33:00;;;;;;;24.35;15.98;;;9.90;96.10;;;;;;5058603;28;20384;-87
2021/10/29 02:35:26;;;;;;;21.48;15.10;;;9.90;96.20;;;;;;5057766;28;20048;-87
2021/10/29 02:37:51;;;;;;;20.95;15.30;;;9.90;96.30;;;;;;5058533;28;20036;-86
2021/10/29 02:40:17;;;;;;;21.00;16.05;;;9.90;96.30;;;;;;5057934;28;20070;-86
2021/10/29 02:42:43;;;;;;;23.48;15.18;;;9.90;96.40;;;;;;5055458;28;20505;-87
2021/10/29 02:45:08;;;;;;;22.70;14.65;;;9.90;96.20;;;;;;5057857;28;20040;-87
2021/10/29 02:47:34;;;;;;;22.88;15.63;;;9.90;96.20;;;;;;5058283;28;20041;-86
2021/10/29 02:50:00;;;;;;;20.75;14.65;;;9.90;96.30;;;;;;5057043;28;20480;-87
2021/10/29 02:52:25;;;;;;;24.23;15.77;;;9.90;96.20;;;;;;5058043;28;20040;-86
2021/10/29 02:54:51;;;;;;;22.35;14.38;;;9.90;96.20;;;;;;5057482;28;20037;-87
2021/10/29 02:57:16;;;;;;;22.65;15.65;;;9.90;96.10;;;;;;5057063;28;20478;-87
2021/10/29 02:59:42;;;;;;;22.50;14.52;;;9.90;96.30;;;;;;5057900;28;20052;-87
2021/10/29 03:02:08;;;;;;;23.05;15.23;;;9.90;96.40;;;;;;5057123;28;20032;-87
2021/10/29 03:04:33;;;;;;;22.27;14.95;;;9.90;96.30;;;;;;5057877;28;20102;-87
2021/10/29 03:06:59;;;;;;;20.02;14.02;;;9.90;96.20;;;;;;5057193;28;20438;-87
2021/10/29 03:09:24;;;;;;;20.20;14.68;;;9.90;96.30;;;;;;5075295;28;20060;-87
2021/10/29 03:11:50;;;;;;;21.65;14.90;;;9.90;96.20;;;;;;5053175;28;20044;-87
2021/10/29 03:14:15;;;;;;;21.08;13.95;;;9.90;96.30;;;;;;5057628;28;20085;-87
2021/10/29 03:16:41;;;;;;;19.88;14.20;;;9.80;96.20;;;;;;5056917;28;20048;-88
2021/10/29 03:19:06;;;;;;;21.55;14.60;;;9.90;96.20;;;;;;5057635;28;20044;-88
2021/10/29 03:21:35;;;;;;;22.38;14.30;;;9.80;96.10;;;;;;5058237;28;20134;-87
2021/10/29 03:24:00;;;;;;;22.05;14.50;;;9.80;96.10;;;;;;5056658;28;20416;-88
2021/10/29 03:26:26;;;;;;;20.65;14.90;;;9.80;96.10;;;;;;5057157;28;20040;-89
2021/10/29 03:28:51;;;;;;;22.85;15.57;;;9.80;96.00;;;;;;5057675;28;20080;-87
2021/10/29 03:31:17;;;;;;;22.75;15.07;;;9.80;96.00;;;;;;5056548;28;20040;-87
2021/10/29 03:33:43;;;;;;;21.75;14.23;;;9.80;96.00;;;;;;5057388;28;20051;-87
2021/10/29 03:36:08;;;;;;;19.95;14.30;;;9.80;96.00;;;;;;5056730;28;20052;-87
2021/10/29 03:38:52;;;;;;;20.55;14.45;;;9.80;95.90;;;;;;5056432;28;20037;-87
2021/10/29 03:41:21;;;;;;;22.60;14.10;;;9.80;95.90;;;;;;5043095;28;20036;-87
2021/10/29 03:44:05;;;;;;;20.80;14.23;;;9.80;95.90;;;;;;5049460;28;20059;-87
2021/10/29 03:46:31;;;;;;;19.70;13.60;;;9.80;95.80;;;;;;5055835;28;20088;-88
2021/10/29 03:51:42;;;;;;;19.50;13.43;;;9.80;95.90;;;;;;5055986;28;20086;-86
2021/10/29 03:54:19;;;;;;;18.83;14.05;;;9.80;95.90;;;;;;5056914;28;20040;-86
2021/10/29 03:56:52;;;;;;;24.45;14.10;;;9.70;96.00;;;;;;5056297;28;20438;-86
2021/10/29 03:59:30;;;;;;;18.38;13.25;;;9.70;96.20;;;;;;5133483;23;20408;-87
2021/10/29 04:01:56;;;;;;;20.10;14.18;;;9.80;96.30;;;;;;5036504;28;20132;-87
2021/10/29 04:04:43;;;;;;;22.63;14.30;;;9.80;96.20;;;;;;4968007;28;20054;-87
2021/10/29 04:07:49;;;;;;;19.92;12.85;;;9.80;96.20;;;;;;4958125;28;20138;-87
2021/10/29 04:10:42;;;;;;;24.75;14.35;;;9.80;95.90;;;;;;5028887;28;20083;-86
2021/10/29 04:17:10;;;;;;;20.33;13.68;;;9.80;96.00;;;;;;5056881;28;20137;-87
2021/10/29 04:19:55;;;;;;;19.85;14.07;;;9.80;95.90;;;;;;4952704;28;20058;-88
2021/10/29 04:22:48;;;;;;;21.10;13.55;;;9.80;96.20;;;;;;4943936;29;20051;-87
2021/10/29 04:25:48;;;;;;;19.70;13.63;;;9.80;96.10;;;;;;4938212;29;20138;-86
2021/10/29 04:28:16;;;;;;;22.40;14.30;;;9.80;96.00;;;;;;4937104;29;20057;-88
2021/10/29 04:31:55;;;;;;;21.20;13.93;;;9.80;96.00;;;;;;4937832;28;20541;-87
2021/10/29 04:34:49;;;;;;;21.75;12.90;;;9.80;95.80;;;;;;4915623;29;20514;-87
2021/10/29 04:37:43;;;;;;;20.30;13.35;;;9.70;95.90;;;;;;4907864;29;20046;-86
2021/10/29 04:40:09;;;;;;;22.08;14.38;;;9.80;96.00;;;;;;4937280;29;20456;-87
2021/10/29 04:46:04;;;;;;;22.15;14.25;;;9.80;96.00;;;;;;4953398;29;20061;-87
2021/10/29 04:48:48;;;;;;;20.17;13.00;;;9.80;96.10;;;;;;4994470;28;20047;-87
2021/10/29 04:51:38;;;;;;;18.58;12.65;;;9.80;96.00;;;;;;5048850;28;20118;-87
2021/10/29 04:54:38;;;;;;;19.80;13.65;;;9.80;96.00;;;;;;5039519;28;20068;-87
2021/10/29 04:57:41;;;;;;;21.42;13.18;;;9.80;96.00;;;;;;5035816;28;20111;-87
2021/10/29 05:00:19;;;;;;;18.90;13.13;;;9.80;96.10;;;;;;5035610;28;20496;-87
2021/10/29 05:02:49;;;;;;;21.92;13.23;;;9.80;96.10;;;;;;5050719;28;20123;-88
2021/10/29 05:05:52;;;;;;;19.42;13.20;;;9.80;96.10;;;;;;5044248;28;20045;-87
2021/10/29 05:08:24;;;;;;;19.77;13.50;;;9.80;96.00;;;;;;5043645;28;20094;-87
2021/10/29 05:11:06;;;;;;;19.30;13.37;;;9.80;96.10;;;;;;5020521;28;20044;-88
2021/10/29 05:13:38;;;;;;;20.08;13.13;;;9.80;96.20;;;;;;5050283;28;20295;-88
2021/10/29 05:16:54;;;;;;;21.08;13.68;;;9.80;96.30;;;;;;5033565;28;20052;-88
2021/10/29 05:24:46;;;;;;;20.23;12.60;;;9.80;96.00;;;;;;5280225;22;20060;-88
2021/10/29 05:27:12;;;;;;;17.80;13.20;;;9.80;96.00;;;;;;5035559;28;20049;-87
2021/10/29 05:32:14;;;;;;;17.23;12.00;;;9.80;96.00;;;;;;5074120;23;20052;-87
2021/10/29 05:34:39;;;;;;;17.60;12.07;;;9.80;96.10;;;;;;5053197;28;20098;-87
2021/10/29 05:37:05;;;;;;;17.20;12.38;;;9.80;96.10;;;;;;5048601;28;20045;-87
2021/10/29 05:39:31;;;;;;;17.38;12.15;;;9.90;96.10;;;;;;5055020;28;20045;-87
2021/10/29 05:41:58;;;;;;;17.83;11.77;;;9.80;96.10;;;;;;5054987;28;20426;-87
2021/10/29 05:44:24;;;;;;;17.15;11.90;;;9.80;96.10;;;;;;5054544;28;20054;-87
2021/10/29 05:46:49;;;;;;;20.15;12.00;;;9.90;96.10;;;;;;5055160;28;20033;-87
2021/10/29 05:49:15;;;;;;;17.92;12.02;;;9.90;96.00;;;;;;5054832;28;20563;-87
2021/10/29 05:51:48;;;;;;;17.52;11.40;;;9.90;95.90;;;;;;5054052;28;20060;-87
2021/10/29 05:57:02;;;;;;;18.05;11.77;;;9.90;96.00;;;;;;5056074;28;20135;-88
2021/10/29 05:59:29;;;;;;;19.38;11.50;;;9.90;96.00;;;;;;5054502;28;20098;-87
2021/10/29 06:01:54;;;;;;;17.48;11.98;;;9.90;95.90;;;;;;5053041;28;20058;-88
2021/10/29 06:04:20;;;;;;;17.67;11.38;;;9.90;96.30;;;;;;5054777;28;20111;-88
2021/10/29 06:06:45;;;;;;;17.90;11.25;;;9.90;95.90;;;;;;5054181;28;20049;-87
2021/10/29 06:09:12;;;;;;;21.42;11.93;;;9.90;95.90;;;;;;5054889;28;20044;-88
2021/10/29 06:11:37;;;;;;;17.90;11.00;;;9.90;95.80;;;;;;5046514;28;20420;-87
2021/10/29 06:14:04;;;;;;;17.95;11.88;;;9.90;95.80;;;;;;5058155;28;20051;-87
2021/10/29 06:16:30;;;;;;;16.83;11.55;;;9.90;95.80;;;;;;5058964;28;20054;-88
2021/10/29 06:18:56;;;;;;;17.83;11.38;;;9.90;95.90;;;;;;5057351;28;20059;-87
2021/10/29 06:21:35;;;;;;;18.15;11.75;;;9.90;95.80;;;;;;5058142;28;20037;-87
2021/10/29 06:24:05;;;;;;;16.13;11.35;;;9.90;95.80;;;;;;5058886;28;20151;-87
2021/10/29 06:26:40;;;;;;;16.02;10.65;;;9.90;95.90;;;;;;5056608;28;20122;-87
2021/10/29 06:29:06;;;;;;;16.88;10.93;;;9.90;95.80;;;;;;5058119;28;20606;-85
2021/10/29 06:31:32;;;;;;;17.58;11.15;;;9.90;95.70;;;;;;5054818;28;20088;-85
2021/10/29 06:33:58;;;;;;;15.45;10.68;;;9.90;95.60;;;;;;5048613;28;20040;-86
2021/10/29 06:36:24;;;;;;;18.77;10.98;;;9.90;95.70;;;;;;5052806;28;20045;-86
2021/10/29 06:38:50;;;;;;;17.20;10.48;;;9.90;95.80;;;;;;5076020;28;20039;-85
2021/10/29 06:41:15;;;;;;;18.73;11.35;;;9.90;95.80;;;;;;5057185;28;20088;-86
2021/10/29 06:43:46;;;;;;;17.75;10.65;;;9.90;95.80;;;;;;5057865;28;20037;-86
2021/10/29 06:46:21;;;;;;;16.88;10.85;;;9.90;95.80;;;;;;5057714;28;20040;-85
2021/10/29 06:59:42;;;;;;;16.95;10.85;;;9.90;95.80;;;;;;5073274;28;20044;-83
2021/10/29 07:40:55;;;;;;;14.45;10.15;;;10.20;95.90;;;;;;5057138;28;20048;-87
2021/10/29 07:43:46;;;;;;;17.35;10.15;;;10.30;95.80;;;;;;5072905;28;20738;-87
2021/10/29 07:46:11;;;;;;;16.65;10.23;;;10.30;95.80;;;;;;5056844;28;20484;-87
2021/10/29 07:48:37;;;;;;;15.63;9.75;;;10.30;95.80;;;;;;5056772;28;20138;-87
2021/10/29 07:51:06;;;;;;;13.98;9.27;;;10.30;95.70;;;;;;5054109;28;20063;-87
2021/10/29 07:53:32;;;;;;;16.50;10.13;;;10.40;95.60;;;;;;5057519;28;20107;-87
2021/10/29 07:56:02;;;;;;;18.10;10.45;;;10.40;95.60;;;;;;5056108;28;20072;-87
2021/10/29 07:58:27;;;;;;;14.45;9.57;;;10.50;95.80;;;;;;5056106;28;20121;-88
2021/10/29 08:00:53;;;;;;;16.50;10.27;;;10.50;95.80;;;;;;5056589;28;20044;-87
2021/10/29 08:03:19;;;;;;;17.70;9.65;;;10.60;95.70;;;;;;5071781;28;20045;-86
2021/10/29 08:05:46;;;;;;;16.05;9.85;;;10.60;95.70;;;;;;5051276;28;20446;-87
2021/10/29 08:08:19;;;;;;;15.63;9.55;;;10.70;95.60;;;;;;5056128;28;20486;-87
2021/10/29 08:10:45;;;;;;;;;;;10.70;95.50;;;;;;5054582;28;20050;-86
2021/10/29 08:13:11;;;;;;;14.88;9.75;;;10.80;95.50;;;;;;5054707;28;20365;-88
2021/10/29 08:15:38;;;;;;;13.73;8.65;;;10.80;95.60;;;;;;5056107;28;20048;-86
2021/10/29 08:18:06;;;;;;;13.45;9.27;;;10.90;95.50;;;;;;5060678;28;20076;-89
2021/10/29 08:20:33;;;;;;;15.88;9.60;;;10.90;95.40;;;;;;5039091;28;20048;-88
2021/10/29 08:23:05;;;;;;;15.10;9.63;;;11.00;95.40;;;;;;5042347;28;20067;-87
2021/10/29 08:25:31;;;;;;;15.18;9.50;;;11.00;95.40;;;;;;5043872;28;20080;-88
2021/10/29 08:27:59;;;;;;;13.70;8.75;;;11.10;95.30;;;;;;5040982;28;20043;-88
2021/10/29 08:30:26;;;;;;;13.75;9.13;;;11.10;95.30;;;;;;5048962;28;20052;-87
2021/10/29 08:32:51;;;;;;;15.55;9.48;;;11.20;95.30;;;;;;5043994;28;20045;-86
2021/10/29 08:35:18;;;;;;;14.65;9.65;;;11.20;95.20;;;;;;5053906;28;20089;-87
2021/10/29 08:37:46;;;;;;;13.07;9.00;;;11.20;95.20;;;;;;5040074;28;20124;-87
2021/10/29 08:40:13;;;;;;;17.08;8.82;;;11.30;95.10;;;;;;5043110;28;20132;-87
2021/10/29 08:42:39;;;;;;;15.90;9.43;;;11.40;95.10;;;;;;5046560;28;20090;-86
2021/10/29 08:45:08;;;;;;;14.25;9.30;;;11.50;95.00;;;;;;5055083;28;20063;-87
2021/10/29 08:47:35;;;;;;;16.25;9.05;;;11.50;94.90;;;;;;5054329;28;20449;-85
2021/10/29 08:50:03;;;;;;;15.32;8.82;;;11.60;94.80;;;;;;5041738;28;20052;-87
2021/10/29 08:52:29;;;;;;;16.75;9.32;;;11.60;94.70;;;;;;5073416;28;20048;-88
2021/10/29 08:54:55;;;;;;;14.65;8.55;;;11.70;94.70;;;;;;5055155;28;20047;-88
2021/10/29 08:57:21;;;;;;;13.68;8.80;;;11.80;94.70;;;;;;5053959;28;20079;-88
2021/10/29 08:59:50;;;;;;;13.40;8.93;;;11.80;94.60;;;;;;5048323;28;20064;-87
2021/10/29 09:02:26;;;;;;;14.98;8.93;;;11.80;94.60;;;;;;5034992;28;20044;-88
2021/10/29 09:05:05;;;;;;;14.65;8.88;;;11.90;94.50;;;;;;5052021;28;20132;-88
2021/10/29 09:07:45;;;;;;;14.32;8.32;;;12.00;94.50;;;;;;5053505;28;20127;-89
2021/10/29 09:32:39;;;;;;;14.95;8.30;;;12.50;94.00;;;;;;5054891;28;20045;-87
2021/10/29 09:35:14;;;;;;;12.32;7.55;;;12.60;94.00;;;;;;5038202;28;20503;-88
2021/10/29 09:38:01;;;;;;;18.55;8.68;;;12.70;93.80;;;;;;5034139;28;20045;-88
2021/10/29 09:40:30;;;;;;;14.02;7.82;;;12.70;93.70;;;;;;5036279;28;20060;-88
2021/10/29 09:43:02;;;;;;;13.70;8.05;;;12.80;93.80;;;;;;5033671;28;20037;-88
2021/10/29 09:45:28;;;;;;;16.13;8.20;;;12.90;93.60;;;;;;5035425;28;20041;-87
2021/10/29 09:48:14;;;;;;;12.10;7.63;;;12.90;93.60;;;;;;5039575;28;20041;-88
2021/10/29 09:50:53;;;;;;;15.10;8.05;;;13.00;93.30;;;;;;5039037;28;20102;-89
2021/10/29 09:54:16;;;;;;;14.30;7.93;;;13.00;93.40;;;;;;5038699;28;20079;-91
2021/10/29 09:58:53;;;;;;;12.63;7.60;;;13.20;93.30;;;;;;5040141;28;20439;-92
2021/10/29 10:01:20;;;;;;;12.88;7.50;;;13.20;93.20;;;;;;5057994;28;20048;-92
2021/10/29 10:03:48;;;;;;;13.07;7.43;;;13.30;93.20;;;;;;5039252;28;20045;-91
2021/10/29 10:06:14;;;;;;;16.58;7.95;;;13.30;93.10;;;;;;5057299;28;20041;-90
2021/10/29 10:08:40;;;;;;;15.50;8.18;;;13.40;93.00;;;;;;5051784;28;20091;-91
2021/10/29 10:11:08;;;;;;;16.73;7.68;;;13.40;93.00;;;;;;5056778;28;20059;-91
2021/10/29 10:13:35;;;;;;;14.18;7.43;;;13.50;93.00;;;;;;5057216;28;20488;-88
2021/10/29 10:16:02;;;;;;;13.38;7.50;;;13.50;92.90;;;;;;5057580;28;20052;-92
2021/10/29 10:18:37;;;;;;;;;;;13.50;92.80;;;;;;5054976;28;20040;-91
2021/10/29 10:21:05;;;;;;;12.23;6.75;;;13.50;92.50;;;;;;5038803;28;19920;-91
2021/10/29 10:23:35;;;;;;;13.02;7.90;;;13.60;92.90;;;;;;5039054;28;20131;-91
2021/10/29 10:47:24;;;;;;;;;;;;;;;;;;;;;
2021/10/29 10:50:52;;;;;;;12.48;6.57;;;14.30;91.70;;;;;;4930574;29;20051;-92
2021/10/29 10:53:52;;;;;;;12.45;6.80;;;14.40;91.60;;;;;;4853939;29;20088;-93
2021/10/29 11:07:58;;;;;;;11.20;5.85;;;14.70;91.40;;;;;;4995602;28;20575;-88
2021/10/29 11:10:27;;;;;;;12.25;6.07;;;14.80;91.10;;;;;;4967404;28;20058;-88
2021/10/29 11:13:31;;;;;;;;;;;;;;;;;;;;;
2021/10/29 11:16:57;;;;;;;10.87;5.60;;;14.90;90.80;;;;;;4970418;28;20045;-88
2021/10/29 11:19:33;;;;;;;9.70;5.60;;;15.00;90.50;;;;;;4945802;28;20055;-89
2021/10/29 11:22:48;;;;;;;10.10;5.88;;;15.10;90.60;;;;;;4969043;28;20047;-87
2021/10/29 11:26:28;;;;;;;11.18;5.63;;;15.10;90.20;;;;;;4969406;28;20105;-89
2021/10/29 11:28:54;;;;;;;11.35;5.80;;;15.20;90.30;;;;;;4944779;28;20492;-88
2021/10/29 11:31:28;;;;;;;10.60;5.78;;;15.30;90.70;;;;;;5023701;28;20041;-88
2021/10/29 11:36:53;;;;;;;12.02;5.53;;;15.30;90.40;;;;;;5031053;28;20042;-87
2021/10/29 11:39:24;;;;;;;11.00;5.20;;;15.40;90.30;;;;;;5018217;28;20041;-88
2021/10/29 11:41:52;;;;;;;9.98;5.28;;;15.40;90.20;;;;;;5037874;28;20056;-92
2021/10/29 11:44:25;;;;;;;12.10;5.35;;;15.50;90.10;;;;;;5035034;28;20060;-89
2021/10/29 11:46:56;;;;;;;9.32;5.63;;;15.50;89.80;;;;;;5035028;28;20053;-89
2021/10/29 11:49:27;;;;;;;8.80;5.00;;;15.60;90.10;;;;;;5037286;28;20041;-88
2021/10/29 11:51:55;;;;;;;11.90;5.25;;;15.60;89.70;;;;;;5035059;28;20049;-89
2021/10/29 11:55:38;;;;;;;8.35;4.80;;;15.60;89.70;;;;;;5035712;28;20542;-90
2021/10/29 12:11:19;;;;;;;11.23;5.32;;;15.80;89.10;;;;;;4908496;28;20078;-87
2021/10/29 12:13:51;;;;;;;9.98;4.70;;;15.80;89.40;;;;;;4954166;28;20166;-91
2021/10/29 12:16:27;;;;;;;14.32;5.45;;;15.80;88.10;;;;;;5003398;28;20057;-88
2021/10/29 12:19:01;;;;;;;10.68;5.07;;;15.90;87.80;;;;;;5016928;28;20131;-88
2021/10/29 12:21:31;;;;;;;11.35;4.97;;;15.90;87.50;;;;;;5034689;28;20056;-94
2021/10/29 12:24:21;;;;;;;8.38;4.47;;;16.00;88.00;;;;;;5038226;28;20049;-92
2021/10/29 12:26:56;;;;;;;9.85;5.00;;;16.00;87.90;;;;;;5036347;28;20068;-93
2021/10/29 12:29:23;;;;;;;9.80;5.15;;;16.00;88.50;;;;;;5037123;28;20044;-94
2021/10/29 12:38:35;;;;;;;8.95;4.97;;;16.20;86.90;;;;;;5020380;28;20049;-91
2021/10/29 13:03:26;;;;;;;9.05;4.82;;;16.30;85.30;;;;;;5003223;28;20037;-88
2021/10/29 13:05:58;;;;;;;9.20;4.55;;;16.30;86.10;;;;;;5034177;28;20128;-89
2021/10/29 13:08:26;;;;;;;8.32;4.55;;;16.40;86.00;;;;;;5033638;28;20044;-88
2021/10/29 13:10:58;;;;;;;10.10;4.80;;;16.40;85.50;;;;;;5025205;28;20520;-85
2021/10/29 13:16:02;;;;;;;10.60;4.95;;;16.40;85.50;;;;;;5033582;28;20095;-90
2021/10/29 13:18:38;;;;;;;10.80;4.68;;;16.40;85.70;;;;;;5026083;28;20127;-89
2021/10/29 13:50:51;;;;;;;10.05;4.30;;;16.20;85.00;;;;;;5039056;28;20049;-88
2021/10/29 13:53:27;;;;;;;8.98;4.00;;;16.20;85.10;;;;;;5038794;28;20053;-89
2021/10/29 13:56:11;;;;;;;9.35;3.78;;;16.30;85.80;;;;;;5039399;28;20052;-88
2021/10/29 13:58:53;;;;;;;9.20;3.83;;;16.20;85.20;;;;;;5036351;28;20484;-88
2021/10/29 14:28:50;;;;;;;8.50;3.30;;;16.50;84.10;;;;;;5038557;28;20049;-88
2021/10/29 14:31:26;;;;;;;7.57;3.35;;;16.50;84.10;;;;;;5037424;28;20110;-88
2021/10/29 14:34:01;;;;;;;7.85;3.40;;;16.50;84.10;;;;;;5038408;28;20088;-88
2021/10/29 14:36:38;;;;;;;6.65;2.97;;;16.50;83.80;;;;;;5038079;28;20087;-87
2021/10/29 14:39:09;;;;;;;8.70;2.83;;;16.50;83.70;;;;;;5039653;28;20047;-88
2021/10/29 14:41:56;;;;;;;11.15;3.03;;;16.50;83.80;;;;;;5039966;28;20124;-88
2021/10/29 14:44:27;;;;;;;8.48;3.30;;;16.50;83.50;;;;;;5036707;28;20088;-87
2021/10/29 14:49:46;;;;;;;9.68;3.13;;;16.50;83.50;;;;;;5038440;28;20049;-87
2021/10/29 15:05:47;;;;;;;7.47;3.35;;;16.40;84.70;;;;;;5038080;28;20492;-88
2021/10/29 15:29:55;;;;;;;8.15;3.13;;;16.20;85.30;;;;;;5019483;28;20054;-86
2021/10/29 15:43:33;;;;;;;7.40;3.60;;;16.00;86.90;;;;;;5031423;28;20049;-83
2021/10/29 15:46:16;;;;;;;8.05;3.05;;;16.00;86.90;;;;;;5033675;28;20504;-83
2021/10/29 15:48:54;;;;;;;6.97;3.60;;;15.90;85.90;;;;;;5022656;28;20049;-86
2021/10/29 15:51:20;;;;;;;7.43;3.08;;;15.90;86.20;;;;;;5034695;28;20045;-85
2021/10/29 15:53:46;;;;;;;6.75;2.88;;;15.90;86.30;;;;;;5035214;28;20629;-85
2021/10/29 16:02:13;;;;;;;6.68;3.28;;;15.80;85.40;;;;;;4957023;28;20105;-88
2021/10/29 16:18:20;;;;;;;9.30;3.33;;;15.60;86.90;;;;;;5024863;28;20410;-90
2021/10/29 16:20:46;;;;;;;6.20;3.30;;;15.60;87.10;;;;;;5036193;28;20041;-91
2021/10/29 16:23:11;;;;;;;7.43;3.55;;;15.50;87.40;;;;;;5033980;28;20040;-89
2021/10/29 16:25:47;;;;;;;7.38;3.55;;;15.50;87.80;;;;;;5027502;28;20436;-90
2021/10/29 16:28:13;;;;;;;9.60;3.75;;;15.50;86.80;;;;;;5029760;28;20537;-92
2021/10/29 16:30:39;;;;;;;7.68;3.80;;;15.40;86.60;;;;;;5036660;28;20059;-89
2021/10/29 16:33:18;;;;;;;6.95;3.30;;;15.40;86.40;;;;;;5034375;28;20090;-91
2021/10/29 16:35:43;;;;;;;9.27;3.80;;;15.30;86.00;;;;;;5024645;28;20518;-89
2021/10/29 16:38:10;;;;;;;10.60;3.90;;;15.20;86.20;;;;;;5031569;28;20059;-89
2021/10/29 16:40:37;;;;;;;8.63;3.60;;;15.20;86.40;;;;;;5030942;28;20049;-91
2021/10/29 16:43:05;;;;;;;7.97;3.67;;;15.20;86.50;;;;;;5031573;28;20041;-89
2021/10/29 16:45:31;;;;;;;8.32;3.88;;;15.10;86.50;;;;;;5026543;28;20057;-89
2021/10/29 16:47:57;;;;;;;6.82;3.45;;;15.10;86.70;;;;;;5026804;28;20079;-91
2021/10/29 16:50:23;;;;;;;9.75;3.60;;;15.10;86.40;;;;;;5033925;28;20041;-92
2021/10/29 16:52:50;;;;;;;6.40;3.42;;;15.10;86.50;;;;;;5036285;28;20044;-91
2021/10/29 16:55:16;;;;;;;7.43;3.45;;;15.10;86.30;;;;;;5028900;28;20076;-89
2021/10/29 16:57:42;;;;;;;9.48;3.92;;;15.00;86.20;;;;;;5032898;28;20124;-91
2021/10/29 17:00:15;;;;;;;8.02;3.55;;;15.00;86.20;;;;;;5035477;28;20036;-89
2021/10/29 17:02:43;;;;;;;6.60;3.47;;;15.00;86.50;;;;;;5035746;28;20055;-89
2021/10/29 17:05:10;;;;;;;7.72;3.53;;;15.00;86.40;;;;;;5030603;28;20500;-89
2021/10/29 17:07:36;;;;;;;9.82;3.80;;;15.00;86.40;;;;;;5034433;28;20067;-91
2021/10/29 17:10:07;;;;;;;7.00;4.00;;;15.00;87.10;;;;;;5031012;28;20049;-90
2021/10/29 17:12:34;;;;;;;10.52;4.13;;;15.00;87.30;;;;;;5033441;28;20075;-88
2021/10/29 17:14:59;;;;;;;10.68;4.13;;;15.00;87.60;;;;;;5023621;28;20095;-90
2021/10/29 17:17:28;;;;;;;13.43;4.50;;;15.00;87.70;;;;;;5016298;28;20049;-92
2021/10/29 17:19:53;;;;;;;6.50;3.60;;;15.00;87.90;;;;;;5023010;28;20056;-89
2021/10/29 17:22:19;;;;;;;7.55;4.22;;;15.00;87.50;;;;;;5027808;28;20400;-90
2021/10/29 17:24:45;;;;;;;10.02;4.57;;;15.00;88.10;;;;;;5034258;28;20091;-89
2021/10/29 17:27:12;;;;;;;8.20;4.68;;;15.10;88.50;;;;;;5034811;28;20052;-90
2021/10/29 17:29:41;;;;;;;10.07;3.65;;;15.10;89.10;;;;;;5033043;28;20045;-88
2021/10/29 17:32:11;;;;;;;9.20;4.43;;;15.00;88.50;;;;;;5035366;28;20052;-90
2021/10/29 17:34:39;;;;;;;7.93;4.22;;;15.10;88.50;;;;;;5051967;28;20045;-93
2021/10/29 17:37:05;;;;;;;10.95;3.97;;;15.10;88.80;;;;;;5037109;28;20049;-92
2021/10/29 17:39:34;;;;;;;8.05;4.35;;;15.10;88.30;;;;;;5036173;28;20373;-92
2021/10/29 17:42:02;;;;;;;8.82;4.10;;;15.10;89.00;;;;;;5035893;28;20056;-93
2021/10/29 17:44:28;;;;;;;8.55;3.78;;;15.10;89.90;;;;;;5037427;28;20052;-93
2021/10/29 17:46:55;;;;;;;10.48;3.75;;;15.10;89.40;;;;;;5026335;28;20049;-91
2021/10/29 17:49:22;;;;;;;8.63;4.40;;;15.10;89.00;;;;;;5033125;28;20044;-92
2021/10/29 17:51:47;;;;;;;11.98;5.38;;;15.10;89.50;;;;;;5034445;28;20056;-92
2021/10/29 17:54:16;;;;;;;7.90;3.95;;;15.10;89.80;;;;;;5027176;28;20120;-93
2021/10/29 17:59:07;;;;;;;7.97;4.00;;;15.10;89.70;;;;;;5151293;22;20075;-92
2021/10/29 18:01:33;;;;;;;12.15;4.20;;;15.10;89.80;;;;;;5056016;28;20396;-93
2021/10/29 18:04:00;;;;;;;8.40;3.95;;;15.10;89.80;;;;;;5050949;28;20025;-92
2021/10/29 18:06:26;;;;;;;9.35;3.67;;;15.10;89.90;;;;;;5040632;28;20045;-91
2021/10/29 18:09:02;;;;;;;8.82;4.07;;;15.10;89.80;;;;;;5043992;28;20033;-87
2021/10/29 18:11:31;;;;;;;9.48;3.72;;;15.10;89.80;;;;;;5038415;28;20049;-95
2021/10/29 18:13:57;;;;;;;8.63;3.83;;;15.10;89.90;;;;;;5045909;28;20076;-92
2021/10/29 18:16:26;;;;;;;9.45;3.80;;;15.10;90.10;;;;;;5052806;28;20139;-93
2021/10/29 18:18:54;;;;;;;7.93;3.60;;;15.10;90.30;;;;;;5042236;28;20040;-95